Time;durP1;ratioP1;P1;durP2;ratioP2;P2;SDS_P1;SDS_P2;PMS_P1;PMS_P2;Temp;Humidity;BMP_temperature;BMP_pressure;BME280_temperature;BME280_humidity;BME280_pressure;Samples;Min_cycle;Max_cycle;Signal;HPM_P1;HPM_P2
2021/12/12 00:01:14;;;;;;;8.90;3.57;;;14.30;91.80;;;;;;5128725;27;20260;-76
2021/12/12 00:03:48;;;;;;;11.30;3.37;;;14.30;91.80;;;;;;5128337;27;20188;-77
2021/12/12 00:06:20;;;;;;;11.43;3.20;;;14.40;91.90;;;;;;5119558;27;20203;-77
2021/12/12 00:08:52;;;;;;;8.17;2.80;;;14.30;91.80;;;;;;5118144;27;20196;-77
2021/12/12 00:11:23;;;;;;;9.47;3.43;;;14.40;91.80;;;;;;5111226;27;20192;-77
2021/12/12 00:13:57;;;;;;;8.13;3.30;;;14.40;91.70;;;;;;5115052;27;20546;-77
2021/12/12 00:16:27;;;;;;;9.20;3.80;;;14.40;91.70;;;;;;5124015;27;20184;-77
2021/12/12 00:18:56;;;;;;;9.20;3.00;;;14.30;91.60;;;;;;5121502;27;20188;-78
2021/12/12 00:21:28;;;;;;;9.47;3.60;;;14.30;91.70;;;;;;5112265;27;20197;-76
2021/12/12 00:23:56;;;;;;;7.10;3.10;;;14.30;91.70;;;;;;5113117;27;20181;-77
2021/12/12 00:26:25;;;;;;;11.93;2.80;;;14.30;91.70;;;;;;5119771;27;20219;-78
2021/12/12 00:28:54;;;;;;;6.50;3.20;;;14.30;91.70;;;;;;5108428;27;20844;-76
2021/12/12 00:31:24;;;;;;;11.17;3.10;;;14.30;91.70;;;;;;5126857;27;20199;-76
2021/12/12 00:33:56;;;;;;;7.77;3.43;;;14.30;91.70;;;;;;5118946;27;20204;-76
2021/12/12 00:36:26;;;;;;;9.23;3.90;;;14.30;91.70;;;;;;5114566;27;20195;-76
2021/12/12 00:38:58;;;;;;;10.53;3.27;;;14.30;91.80;;;;;;5116633;27;20239;-77
2021/12/12 00:41:28;;;;;;;7.57;3.20;;;14.30;91.70;;;;;;5109801;27;20197;-79
2021/12/12 00:43:59;;;;;;;11.63;3.77;;;14.20;91.70;;;;;;5114671;27;20192;-77
2021/12/12 00:46:27;;;;;;;16.77;3.10;;;14.20;91.70;;;;;;5110089;27;20185;-78
2021/12/12 00:48:57;;;;;;;11.20;2.80;;;14.20;91.70;;;;;;5114444;27;20193;-79
2021/12/12 00:51:29;;;;;;;9.17;2.77;;;14.20;91.70;;;;;;5109536;27;20211;-79
2021/12/12 00:53:58;;;;;;;7.23;2.63;;;14.20;91.70;;;;;;5114453;27;20204;-78
2021/12/12 00:56:27;;;;;;;10.00;3.13;;;14.20;91.70;;;;;;5115815;27;20658;-79
2021/12/12 00:58:55;;;;;;;8.73;2.70;;;14.20;91.70;;;;;;5122787;27;20196;-78
2021/12/12 01:01:27;;;;;;;14.67;2.73;;;14.20;91.70;;;;;;5109221;27;20204;-79
2021/12/12 01:04:01;;;;;;;10.97;3.90;;;14.20;91.80;;;;;;5111709;27;20275;-77
2021/12/12 01:06:30;;;;;;;9.90;3.10;;;14.20;91.70;;;;;;5114519;27;20188;-78
2021/12/12 01:09:01;;;;;;;7.10;2.77;;;14.20;91.80;;;;;;5108822;27;20794;-78
2021/12/12 01:11:33;;;;;;;10.00;2.90;;;14.20;91.70;;;;;;5119255;27;20184;-78
2021/12/12 01:14:09;;;;;;;13.00;3.40;;;14.20;91.70;;;;;;5116306;27;20196;-78
2021/12/12 01:16:40;;;;;;;11.03;3.60;;;14.20;91.70;;;;;;5125300;27;20519;-78
2021/12/12 01:19:14;;;;;;;9.20;2.70;;;14.20;91.70;;;;;;5116304;27;20181;-78
2021/12/12 01:21:46;;;;;;;6.90;2.40;;;14.20;91.70;;;;;;5114147;27;20194;-79
2021/12/12 01:24:19;;;;;;;6.80;3.00;;;14.20;91.70;;;;;;5112961;27;20188;-77
2021/12/12 01:26:48;;;;;;;6.80;2.90;;;14.20;91.70;;;;;;5113157;27;20233;-78
2021/12/12 01:29:17;;;;;;;10.50;2.70;;;14.20;91.60;;;;;;5120572;27;20197;-76
2021/12/12 01:31:48;;;;;;;5.33;2.43;;;14.20;91.60;;;;;;5113984;27;20222;-77
2021/12/12 01:34:24;;;;;;;7.10;2.50;;;14.30;91.60;;;;;;5108585;27;20585;-78
2021/12/12 01:37:09;;;;;;;11.37;2.73;;;14.20;91.50;;;;;;5114577;27;20939;-77
2021/12/12 01:39:40;;;;;;;5.80;2.27;;;14.20;91.60;;;;;;5116702;27;20191;-78
2021/12/12 01:42:12;;;;;;;8.87;2.70;;;14.20;91.50;;;;;;5107906;27;20241;-78
2021/12/12 01:44:47;;;;;;;6.27;2.20;;;14.30;91.60;;;;;;5112286;27;20189;-79
2021/12/12 01:47:19;;;;;;;5.67;2.87;;;14.30;91.60;;;;;;5106630;27;20241;-78
2021/12/12 01:49:51;;;;;;;9.35;3.28;;;14.20;91.50;;;;;;5113334;27;20447;-78
2021/12/12 01:52:24;;;;;;;12.57;2.50;;;14.30;91.70;;;;;;5119711;27;20586;-79
2021/12/12 01:54:57;;;;;;;5.90;2.63;;;14.30;91.80;;;;;;5111537;27;20200;-77
2021/12/12 01:57:29;;;;;;;7.30;2.60;;;14.20;91.70;;;;;;5110507;27;20189;-78
2021/12/12 02:00:00;;;;;;;8.23;2.90;;;14.20;91.70;;;;;;5115457;27;20649;-78
2021/12/12 02:02:32;;;;;;;10.37;3.63;;;14.20;91.70;;;;;;5117399;27;20204;-78
2021/12/12 02:05:07;;;;;;;9.00;2.57;;;14.20;91.80;;;;;;5122900;27;20200;-79
2021/12/12 02:07:41;;;;;;;7.87;2.70;;;14.20;91.80;;;;;;5122866;27;20192;-77
2021/12/12 02:10:13;;;;;;;12.20;2.70;;;14.20;91.80;;;;;;5125917;27;20258;-78
2021/12/12 02:12:41;;;;;;;7.97;3.30;;;14.20;91.70;;;;;;5115520;27;20188;-79
2021/12/12 02:15:12;;;;;;;11.17;3.63;;;14.20;91.80;;;;;;5106666;28;20220;-78
2021/12/12 02:17:46;;;;;;;10.63;2.87;;;14.20;91.80;;;;;;5109692;28;20180;-78
2021/12/12 02:20:23;;;;;;;7.27;3.10;;;14.20;91.80;;;;;;5113580;27;20215;-78
2021/12/12 02:23:04;;;;;;;7.77;2.83;;;14.20;91.80;;;;;;5128292;27;20720;-78
2021/12/12 02:36:46;;;;;;;9.07;2.63;;;14.30;92.00;;;;;;5117939;27;20203;-77
2021/12/12 02:39:16;;;;;;;9.23;2.83;;;14.30;91.90;;;;;;5114311;28;20270;-77
2021/12/12 02:41:48;;;;;;;8.00;2.80;;;14.30;91.90;;;;;;5110844;27;20188;-77
2021/12/12 02:44:20;;;;;;;7.70;2.37;;;14.40;92.00;;;;;;5115078;27;20191;-77
2021/12/12 02:46:50;;;;;;;7.67;2.73;;;14.30;92.10;;;;;;5120434;27;20191;-77
2021/12/12 02:49:37;;;;;;;7.87;2.70;;;14.40;92.00;;;;;;5124399;27;20277;-77
2021/12/12 02:52:09;;;;;;;8.60;2.80;;;14.40;92.00;;;;;;5116815;27;20195;-77
2021/12/12 02:54:39;;;;;;;9.27;3.00;;;14.30;92.00;;;;;;5117827;27;20220;-76
2021/12/12 02:57:09;;;;;;;6.70;3.03;;;14.30;92.10;;;;;;5111891;27;20185;-76
2021/12/12 02:59:41;;;;;;;6.47;3.27;;;14.30;92.10;;;;;;5117106;27;20914;-78
2021/12/12 03:02:14;;;;;;;11.13;3.47;;;14.40;92.20;;;;;;5122031;27;20189;-78
2021/12/12 03:04:43;;;;;;;9.47;3.23;;;14.30;92.10;;;;;;5114138;27;20200;-78
2021/12/12 03:07:13;;;;;;;10.80;3.13;;;14.30;92.10;;;;;;5118875;27;20193;-76
2021/12/12 03:09:45;;;;;;;6.77;3.07;;;14.30;92.20;;;;;;5113854;27;20208;-78
2021/12/12 03:12:17;;;;;;;9.83;4.00;;;14.30;92.20;;;;;;5123305;27;20195;-76
2021/12/12 03:14:47;;;;;;;16.13;3.07;;;14.30;92.40;;;;;;5116271;27;20205;-76
2021/12/12 03:17:19;;;;;;;8.90;3.20;;;14.30;92.40;;;;;;5121095;27;20714;-76
2021/12/12 03:19:49;;;;;;;15.50;3.33;;;14.30;92.60;;;;;;5117344;27;20197;-76
2021/12/12 03:22:18;;;;;;;15.50;4.50;;;14.30;92.70;;;;;;5110318;27;20192;-76
2021/12/12 03:24:49;;;;;;;7.40;3.50;;;14.30;92.80;;;;;;5113861;27;20192;-78
2021/12/12 03:27:20;;;;;;;10.37;3.37;;;14.30;92.80;;;;;;5115584;27;20208;-77
2021/12/12 03:29:50;;;;;;;10.93;3.53;;;14.30;92.90;;;;;;5112853;27;20189;-78
2021/12/12 03:32:20;;;;;;;8.93;3.70;;;14.30;93.00;;;;;;5118360;27;20191;-77
2021/12/12 03:34:55;;;;;;;8.63;3.50;;;14.30;93.00;;;;;;5119903;27;20235;-76
2021/12/12 03:37:27;;;;;;;9.73;3.20;;;14.30;93.00;;;;;;5113934;27;20200;-77
2021/12/12 03:39:58;;;;;;;7.00;2.90;;;14.30;93.00;;;;;;5113110;27;20204;-76
2021/12/12 03:42:29;;;;;;;8.00;3.37;;;14.20;93.00;;;;;;5112041;27;20892;-77
2021/12/12 03:45:00;;;;;;;6.67;3.30;;;14.20;93.00;;;;;;5112557;27;20196;-77
2021/12/12 03:47:31;;;;;;;11.77;3.30;;;14.20;93.00;;;;;;5117202;27;20195;-77
2021/12/12 03:50:05;;;;;;;11.13;3.50;;;14.20;93.00;;;;;;5115302;27;20193;-77
2021/12/12 03:52:33;;;;;;;11.07;3.23;;;14.30;93.00;;;;;;5120606;27;20224;-76
2021/12/12 03:55:05;;;;;;;10.37;3.70;;;14.20;93.00;;;;;;5115671;27;20213;-78
2021/12/12 03:57:34;;;;;;;8.73;3.17;;;14.30;93.00;;;;;;5112405;27;20193;-77
2021/12/12 04:00:05;;;;;;;11.93;3.53;;;14.30;93.00;;;;;;5119582;27;20197;-78
2021/12/12 04:02:34;;;;;;;7.70;4.13;;;14.20;93.00;;;;;;5110133;27;20254;-77
2021/12/12 04:05:03;;;;;;;12.73;3.53;;;14.20;93.00;;;;;;5111446;27;20208;-76
2021/12/12 04:07:32;;;;;;;10.13;3.50;;;14.30;93.10;;;;;;5113051;27;20193;-76
2021/12/12 04:10:04;;;;;;;9.30;3.60;;;14.30;93.00;;;;;;5124719;27;20211;-76
2021/12/12 04:12:32;;;;;;;9.47;4.47;;;14.30;93.10;;;;;;5114357;27;20197;-77
2021/12/12 04:15:01;;;;;;;11.53;4.00;;;14.30;93.10;;;;;;5116725;27;20221;-78
2021/12/12 04:17:31;;;;;;;10.83;4.17;;;14.30;93.10;;;;;;5118543;27;20203;-77
2021/12/12 04:20:06;;;;;;;9.70;4.30;;;14.30;93.10;;;;;;5113081;27;20706;-78
2021/12/12 04:22:35;;;;;;;10.47;3.83;;;14.30;93.10;;;;;;5115961;27;20200;-77
2021/12/12 04:25:06;;;;;;;11.87;4.00;;;14.30;93.10;;;;;;5124345;27;20188;-78
2021/12/12 04:27:36;;;;;;;9.10;3.63;;;14.30;93.10;;;;;;5117456;27;20673;-77
2021/12/12 04:30:06;;;;;;;8.77;3.97;;;14.30;93.10;;;;;;5110940;27;20199;-77
2021/12/12 04:32:35;;;;;;;11.27;3.97;;;14.40;93.10;;;;;;5122213;27;20597;-78
2021/12/12 04:35:09;;;;;;;12.57;4.93;;;14.40;93.10;;;;;;5106306;27;20216;-77
2021/12/12 04:37:38;;;;;;;17.10;4.47;;;14.40;93.10;;;;;;5121646;27;20196;-78
2021/12/12 04:40:12;;;;;;;11.95;4.05;;;14.40;93.10;;;;;;5115124;27;20850;-77
2021/12/12 04:42:41;;;;;;;11.93;3.57;;;14.40;93.30;;;;;;5122626;27;20189;-77
2021/12/12 04:45:20;;;;;;;14.33;4.37;;;14.40;93.20;;;;;;5110402;27;20243;-79
2021/12/12 04:50:50;;;;;;;15.40;3.80;;;14.50;93.10;;;;;;5118106;27;20194;-77
2021/12/12 04:53:25;;;;;;;12.00;3.80;;;14.50;93.10;;;;;;5108369;27;20623;-77
2021/12/12 04:55:59;;;;;;;11.90;3.87;;;14.50;93.00;;;;;;5116788;27;20265;-77
2021/12/12 04:58:37;;;;;;;9.70;4.00;;;14.50;93.10;;;;;;5110180;27;20192;-78
2021/12/12 05:01:14;;;;;;;14.93;4.47;;;14.50;93.10;;;;;;5110416;27;20192;-78
2021/12/12 05:03:51;;;;;;;10.47;4.00;;;14.50;93.00;;;;;;5121018;27;20190;-77
2021/12/12 05:06:26;;;;;;;8.97;3.50;;;14.50;92.90;;;;;;5126141;27;20203;-77
2021/12/12 05:09:03;;;;;;;10.83;4.17;;;14.50;92.80;;;;;;5114242;27;20211;-77
2021/12/12 05:11:39;;;;;;;10.37;4.40;;;14.50;92.90;;;;;;5113540;27;20192;-78
2021/12/12 05:14:13;;;;;;;12.40;4.57;;;14.50;92.80;;;;;;5114910;27;20180;-79
2021/12/12 05:16:44;;;;;;;13.10;4.20;;;14.60;92.80;;;;;;5117635;27;20236;-77
2021/12/12 05:19:18;;;;;;;7.30;3.57;;;14.60;92.70;;;;;;5119279;27;20196;-77
2021/12/12 05:21:50;;;;;;;13.30;4.50;;;14.60;92.70;;;;;;5126441;27;20264;-78
2021/12/12 05:24:22;;;;;;;10.60;4.27;;;14.60;92.60;;;;;;5115517;27;20604;-77
2021/12/12 05:26:55;;;;;;;10.27;4.03;;;14.60;92.60;;;;;;5108471;27;20197;-79
2021/12/12 05:29:27;;;;;;;12.60;3.53;;;14.60;92.60;;;;;;5111710;27;20185;-77
2021/12/12 05:31:58;;;;;;;10.27;4.13;;;14.70;92.50;;;;;;5111091;27;20257;-79
2021/12/12 05:34:30;;;;;;;11.57;5.00;;;14.70;92.50;;;;;;5114263;27;20282;-77
2021/12/12 05:37:01;;;;;;;9.13;3.87;;;14.70;92.40;;;;;;5113238;27;20201;-79
2021/12/12 05:39:30;;;;;;;12.43;5.00;;;14.70;92.30;;;;;;5118640;27;20610;-77
2021/12/12 05:42:00;;;;;;;14.53;4.50;;;14.80;92.30;;;;;;5118156;27;20246;-78
2021/12/12 05:44:31;;;;;;;12.40;4.37;;;14.80;92.30;;;;;;5117268;27;20193;-77
2021/12/12 05:47:02;;;;;;;11.40;4.27;;;14.80;92.30;;;;;;5115098;27;20575;-77
2021/12/12 05:49:32;;;;;;;19.30;4.13;;;14.80;92.20;;;;;;5107908;27;20189;-77
2021/12/12 05:52:01;;;;;;;13.40;4.33;;;14.80;92.10;;;;;;5115688;27;20251;-78
2021/12/12 05:54:29;;;;;;;10.30;4.10;;;14.80;92.10;;;;;;5105797;27;20192;-78
2021/12/12 05:57:01;;;;;;;8.47;3.90;;;14.80;92.00;;;;;;5106841;27;20221;-78
2021/12/12 05:59:30;;;;;;;10.53;4.47;;;14.80;91.90;;;;;;5120077;27;20189;-77
2021/12/12 06:02:03;;;;;;;10.20;3.93;;;14.90;91.90;;;;;;5106383;27;20185;-77
2021/12/12 06:04:32;;;;;;;12.70;4.07;;;14.80;91.90;;;;;;5120984;27;20184;-77
2021/12/12 06:07:04;;;;;;;7.97;3.83;;;14.80;91.90;;;;;;5119850;27;20188;-77
2021/12/12 06:09:33;;;;;;;12.40;4.07;;;14.90;91.80;;;;;;5107304;27;20519;-78
2021/12/12 06:12:06;;;;;;;9.47;3.40;;;14.90;91.80;;;;;;5112409;27;20224;-77
2021/12/12 06:14:38;;;;;;;7.53;3.67;;;14.90;91.80;;;;;;5104391;28;20733;-77
2021/12/12 06:17:10;;;;;;;11.13;3.77;;;14.90;91.70;;;;;;5111532;28;20219;-79
2021/12/12 06:19:39;;;;;;;11.83;3.10;;;14.90;91.70;;;;;;5115120;28;20176;-78
2021/12/12 06:22:09;;;;;;;8.83;4.07;;;14.90;91.70;;;;;;5119389;27;20221;-77
2021/12/12 06:24:40;;;;;;;10.67;3.53;;;14.90;91.60;;;;;;5108189;27;20634;-78
2021/12/12 06:27:13;;;;;;;7.40;3.33;;;14.90;91.60;;;;;;5123856;27;20199;-79
2021/12/12 06:29:42;;;;;;;9.30;3.43;;;15.00;91.60;;;;;;5120168;27;20237;-78
2021/12/12 06:32:10;;;;;;;10.80;3.93;;;15.00;91.60;;;;;;5119974;27;20201;-78
2021/12/12 06:34:39;;;;;;;9.27;3.63;;;15.00;91.60;;;;;;5109634;27;20212;-77
2021/12/12 06:37:08;;;;;;;12.47;3.63;;;15.00;91.50;;;;;;5128386;27;20257;-79
2021/12/12 06:39:42;;;;;;;10.40;3.60;;;15.00;91.50;;;;;;5111242;27;20181;-78
2021/12/12 06:42:13;;;;;;;9.67;3.47;;;15.00;91.40;;;;;;5125455;27;20213;-79
2021/12/12 06:44:42;;;;;;;15.67;3.60;;;15.00;91.40;;;;;;5121055;27;20189;-78
2021/12/12 06:47:14;;;;;;;9.17;3.50;;;15.10;91.40;;;;;;5123305;27;20202;-79
2021/12/12 06:49:44;;;;;;;10.33;3.50;;;15.10;91.40;;;;;;5114399;27;20264;-78
2021/12/12 06:52:15;;;;;;;8.20;3.47;;;15.10;91.30;;;;;;5123425;27;20203;-78
2021/12/12 06:54:43;;;;;;;7.03;3.20;;;15.10;91.30;;;;;;5127413;27;20579;-78
2021/12/12 06:57:16;;;;;;;11.10;3.27;;;15.10;91.20;;;;;;5124368;27;20272;-78
2021/12/12 06:59:45;;;;;;;7.30;3.40;;;15.10;91.20;;;;;;5112628;27;20196;-78
2021/12/12 07:02:14;;;;;;;6.30;3.57;;;15.20;91.20;;;;;;5116723;27;20253;-78
2021/12/12 07:04:44;;;;;;;6.53;3.40;;;15.20;91.20;;;;;;5120687;27;20192;-78
2021/12/12 07:07:15;;;;;;;9.30;3.50;;;15.20;91.10;;;;;;5118573;27;20187;-79
2021/12/12 07:09:45;;;;;;;9.87;3.50;;;15.20;91.00;;;;;;5113945;27;20593;-78
2021/12/12 07:12:22;;;;;;;9.40;3.30;;;15.20;91.00;;;;;;5131136;27;20213;-78
2021/12/12 07:14:51;;;;;;;7.10;3.23;;;15.30;91.00;;;;;;5111608;27;20279;-78
2021/12/12 07:17:20;;;;;;;8.77;3.43;;;15.30;90.90;;;;;;5119563;27;20216;-78
2021/12/12 07:19:49;;;;;;;7.73;3.30;;;15.40;91.00;;;;;;5118751;27;20192;-78
2021/12/12 07:22:17;;;;;;;8.90;3.60;;;15.40;91.00;;;;;;5117983;27;20705;-78
2021/12/12 07:24:46;;;;;;;14.33;4.07;;;15.40;90.90;;;;;;5127432;27;20721;-78
2021/12/12 07:27:17;;;;;;;13.27;3.73;;;15.40;90.90;;;;;;5129103;27;20739;-78
2021/12/12 07:29:46;;;;;;;10.50;4.27;;;15.50;90.90;;;;;;5113216;27;20194;-78
2021/12/12 07:32:16;;;;;;;9.73;4.00;;;15.50;90.80;;;;;;5124017;27;20731;-78
2021/12/12 07:34:44;;;;;;;9.90;4.40;;;15.50;90.70;;;;;;5125658;27;20224;-79
2021/12/12 07:37:13;;;;;;;8.53;3.80;;;15.50;90.70;;;;;;5113832;27;20224;-77
2021/12/12 07:39:44;;;;;;;8.07;4.03;;;15.60;90.70;;;;;;5122865;27;20191;-77
2021/12/12 07:42:14;;;;;;;10.77;4.77;;;15.50;90.60;;;;;;5126090;27;20201;-78
2021/12/12 07:44:46;;;;;;;13.40;4.17;;;15.60;90.60;;;;;;5116052;27;20197;-77
2021/12/12 07:47:16;;;;;;;7.93;3.90;;;15.60;90.50;;;;;;5117841;27;20188;-78
2021/12/12 07:49:47;;;;;;;9.10;3.97;;;15.60;90.50;;;;;;5129346;27;20925;-78
2021/12/12 07:52:23;;;;;;;11.53;3.80;;;15.60;90.50;;;;;;5118874;27;20180;-78
2021/12/12 07:54:52;;;;;;;9.43;3.77;;;15.60;90.40;;;;;;5123537;27;20540;-78
2021/12/12 07:57:21;;;;;;;15.27;4.60;;;15.60;90.40;;;;;;5114740;27;20258;-78
2021/12/12 07:59:53;;;;;;;9.27;4.27;;;15.60;90.30;;;;;;5115872;27;20451;-78
2021/12/12 08:02:23;;;;;;;8.33;4.00;;;15.60;90.20;;;;;;5115336;27;20181;-78
2021/12/12 08:04:53;;;;;;;11.03;4.10;;;15.60;90.60;;;;;;5116515;27;20281;-78
2021/12/12 08:07:24;;;;;;;10.37;4.07;;;15.60;90.30;;;;;;5113675;27;20199;-77
2021/12/12 08:09:53;;;;;;;7.27;3.80;;;15.60;90.30;;;;;;5117770;27;20184;-77
2021/12/12 08:12:25;;;;;;;8.83;4.40;;;15.60;90.30;;;;;;5111937;27;20185;-78
2021/12/12 08:14:55;;;;;;;11.33;4.70;;;15.60;90.40;;;;;;5121075;27;20197;-78
2021/12/12 08:17:25;;;;;;;12.20;4.67;;;15.60;90.40;;;;;;5114711;27;20777;-78
2021/12/12 08:19:58;;;;;;;12.23;5.03;;;15.60;90.40;;;;;;5113892;27;20254;-77
2021/12/12 08:22:27;;;;;;;12.03;5.57;;;15.60;90.80;;;;;;5122849;27;20192;-77
2021/12/12 08:24:58;;;;;;;13.87;4.80;;;15.60;90.40;;;;;;5125230;27;20192;-77
2021/12/12 08:27:27;;;;;;;10.00;4.67;;;15.60;90.50;;;;;;5110745;27;20189;-78
2021/12/12 08:29:59;;;;;;;8.33;4.57;;;15.60;90.40;;;;;;5122107;27;20218;-77
2021/12/12 08:32:28;;;;;;;11.53;5.07;;;15.60;90.40;;;;;;5111861;27;20188;-78
2021/12/12 08:35:11;;;;;;;8.17;3.87;;;15.60;90.30;;;;;;5122752;27;20216;-78
2021/12/12 08:37:41;;;;;;;11.53;4.67;;;15.60;90.30;;;;;;5121313;27;20220;-79
2021/12/12 08:40:14;;;;;;;11.57;4.00;;;15.60;90.10;;;;;;5120039;27;20649;-78
2021/12/12 08:42:42;;;;;;;9.13;4.80;;;15.50;89.90;;;;;;5112051;27;20181;-78
2021/12/12 08:45:16;;;;;;;7.77;4.00;;;15.50;89.10;;;;;;5126121;27;20188;-79
2021/12/12 08:47:44;;;;;;;8.77;4.60;;;15.50;89.20;;;;;;5122347;27;20173;-79
2021/12/12 08:50:18;;;;;;;8.73;4.60;;;15.50;89.10;;;;;;5130205;27;20291;-80
2021/12/12 08:52:48;;;;;;;9.77;4.60;;;15.40;89.00;;;;;;5115926;27;20192;-79
2021/12/12 08:55:20;;;;;;;8.40;4.70;;;15.40;88.90;;;;;;5117974;27;20196;-78
2021/12/12 08:57:58;;;;;;;16.20;4.57;;;15.40;88.90;;;;;;5106222;28;20201;-81
2021/12/12 09:00:33;;;;;;;9.07;4.33;;;15.40;88.50;;;;;;5109593;27;20311;-80
2021/12/12 09:03:03;;;;;;;7.73;4.60;;;15.40;88.70;;;;;;5113295;27;20192;-79
2021/12/12 09:05:36;;;;;;;7.93;4.43;;;15.40;88.80;;;;;;5109471;27;20222;-79
2021/12/12 09:08:32;;;;;;;9.93;4.43;;;15.40;88.80;;;;;;5113881;27;20229;-79
2021/12/12 09:11:06;;;;;;;7.80;4.60;;;15.40;88.50;;;;;;5116224;27;20734;-78
2021/12/12 09:13:46;;;;;;;9.13;4.40;;;15.40;87.80;;;;;;5110654;27;20225;-79
2021/12/12 09:16:21;;;;;;;9.83;4.17;;;15.40;87.90;;;;;;5118823;27;20199;-79
2021/12/12 09:18:55;;;;;;;8.77;3.80;;;15.40;86.30;;;;;;5115973;27;20201;-79
2021/12/12 09:21:28;;;;;;;8.83;5.57;;;15.30;85.90;;;;;;5115250;27;20188;-79
2021/12/12 09:24:05;;;;;;;11.00;6.77;;;15.30;85.80;;;;;;5114628;27;20199;-79
2021/12/12 09:26:39;;;;;;;10.87;4.60;;;15.20;85.60;;;;;;5114495;27;20184;-79
2021/12/12 09:29:16;;;;;;;14.17;6.17;;;15.20;85.50;;;;;;5112962;27;20220;-79
2021/12/12 09:31:51;;;;;;;10.53;5.40;;;15.20;85.70;;;;;;5121177;27;20192;-80
2021/12/12 09:34:26;;;;;;;11.37;5.00;;;15.10;85.70;;;;;;5115734;27;20250;-79
2021/12/12 09:37:20;;;;;;;8.70;4.57;;;15.10;86.00;;;;;;5116004;27;20193;-78
2021/12/12 09:39:59;;;;;;;11.40;5.13;;;15.10;86.20;;;;;;5118483;27;20630;-79
2021/12/12 09:42:47;;;;;;;13.00;5.77;;;15.10;86.20;;;;;;5127600;27;20187;-79
2021/12/12 09:45:49;;;;;;;9.37;5.70;;;15.10;86.50;;;;;;5119552;27;20200;-78
2021/12/12 09:52:00;;;;;;;10.53;5.60;;;15.10;86.60;;;;;;5116393;27;20817;-78
2021/12/12 09:54:36;;;;;;;12.30;5.90;;;15.10;86.70;;;;;;5108441;27;20192;-79
2021/12/12 09:57:11;;;;;;;11.17;5.97;;;15.10;86.80;;;;;;5132631;27;20208;-77
2021/12/12 09:59:56;;;;;;;11.37;6.13;;;15.20;86.90;;;;;;5108621;27;20204;-78
2021/12/12 10:02:29;;;;;;;11.97;5.80;;;15.20;86.10;;;;;;5111883;27;20747;-78
2021/12/12 10:05:12;;;;;;;10.40;5.90;;;15.30;86.40;;;;;;5111135;27;20245;-78
2021/12/12 10:07:53;;;;;;;14.23;6.47;;;15.30;86.30;;;;;;5125188;27;20237;-79
2021/12/12 10:10:29;;;;;;;9.40;5.40;;;15.40;86.40;;;;;;5115728;27;20192;-79
2021/12/12 10:13:03;;;;;;;10.90;5.70;;;15.40;86.50;;;;;;5115116;27;20185;-79
2021/12/12 10:15:39;;;;;;;10.63;5.50;;;15.50;85.80;;;;;;5120447;27;20196;-78
2021/12/12 10:18:16;;;;;;;12.63;5.57;;;15.50;84.70;;;;;;5109320;28;20241;-78
2021/12/12 10:20:53;;;;;;;14.63;7.33;;;15.60;84.50;;;;;;5111521;28;20193;-78
2021/12/12 10:23:29;;;;;;;14.70;7.33;;;15.60;85.50;;;;;;5127033;27;20188;-78
2021/12/12 10:26:05;;;;;;;15.70;7.27;;;15.60;84.10;;;;;;5107866;27;20241;-78
2021/12/12 10:28:43;;;;;;;12.57;7.30;;;15.60;84.50;;;;;;5115416;27;20590;-78
2021/12/12 10:31:19;;;;;;;15.07;8.00;;;15.60;84.40;;;;;;5117064;28;20188;-78
2021/12/12 10:33:53;;;;;;;14.40;7.10;;;15.70;84.70;;;;;;5113425;27;20180;-79
2021/12/12 10:36:28;;;;;;;14.95;7.55;;;15.70;84.70;;;;;;5108172;28;20406;-78
2021/12/12 10:39:02;;;;;;;10.70;6.70;;;15.60;84.20;;;;;;5105676;28;20835;-79
2021/12/12 10:41:36;;;;;;;11.33;7.40;;;15.50;84.10;;;;;;5120305;27;20697;-79
2021/12/12 10:44:10;;;;;;;18.37;10.57;;;15.50;84.00;;;;;;5126187;27;20195;-79
2021/12/12 10:46:47;;;;;;;11.30;7.07;;;15.50;83.90;;;;;;5121683;27;20233;-78
2021/12/12 10:49:26;;;;;;;13.17;7.90;;;15.40;83.10;;;;;;5131442;27;20177;-78
2021/12/12 10:52:04;;;;;;;12.23;7.57;;;15.40;83.00;;;;;;5108458;27;20189;-77
2021/12/12 10:54:39;;;;;;;14.63;8.73;;;15.40;83.40;;;;;;5125985;27;20635;-78
2021/12/12 10:57:12;;;;;;;13.73;8.37;;;15.30;82.90;;;;;;5111939;28;20183;-77
2021/12/12 10:59:46;;;;;;;11.60;7.53;;;15.20;82.80;;;;;;5122029;27;20736;-79
2021/12/12 11:02:18;;;;;;;12.17;6.87;;;15.20;83.00;;;;;;5110427;28;20181;-78
2021/12/12 11:04:52;;;;;;;11.10;6.40;;;15.20;82.80;;;;;;5127350;27;20188;-79
2021/12/12 11:07:28;;;;;;;11.00;6.27;;;15.20;83.00;;;;;;5111176;27;20185;-80
2021/12/12 11:10:06;;;;;;;11.33;6.87;;;15.20;83.00;;;;;;5113648;27;20715;-78
2021/12/12 11:12:40;;;;;;;14.37;7.40;;;15.30;83.10;;;;;;5118187;27;20250;-79
2021/12/12 11:15:14;;;;;;;11.30;6.67;;;15.30;83.00;;;;;;5122394;27;20641;-79
2021/12/12 11:17:49;;;;;;;12.70;7.93;;;15.40;83.00;;;;;;5114290;27;20196;-80
2021/12/12 11:20:21;;;;;;;13.53;7.70;;;15.30;82.70;;;;;;5113040;27;20200;-78
2021/12/12 11:22:58;;;;;;;10.60;6.83;;;15.30;82.30;;;;;;5125851;27;20204;-77
2021/12/12 11:25:31;;;;;;;7.17;5.07;;;15.30;82.70;;;;;;5110401;27;20540;-78
2021/12/12 11:28:06;;;;;;;10.40;5.67;;;15.30;82.00;;;;;;5108366;27;20272;-79
2021/12/12 11:30:39;;;;;;;9.83;5.63;;;15.20;81.70;;;;;;5118995;27;20176;-79
2021/12/12 11:33:12;;;;;;;9.87;5.20;;;15.20;81.60;;;;;;5124058;27;20173;-79
2021/12/12 11:35:42;;;;;;;17.03;9.17;;;15.20;81.80;;;;;;5107056;27;20853;-81
2021/12/12 11:38:18;;;;;;;15.60;8.57;;;15.20;82.20;;;;;;5137994;27;20241;-80
2021/12/12 11:40:59;;;;;;;12.17;6.77;;;15.20;82.40;;;;;;5117981;27;20208;-79
2021/12/12 11:43:35;;;;;;;10.17;6.07;;;15.10;82.20;;;;;;5119105;27;20180;-79
2021/12/12 11:46:19;;;;;;;11.90;6.03;;;15.10;82.20;;;;;;5133344;27;20659;-78
2021/12/12 11:48:55;;;;;;;12.57;6.83;;;15.10;82.00;;;;;;5114929;27;20238;-79
2021/12/12 11:51:30;;;;;;;11.37;5.47;;;15.00;82.20;;;;;;5111385;27;20843;-80
2021/12/12 11:54:07;;;;;;;11.33;6.83;;;15.00;82.60;;;;;;5122314;27;20320;-80
2021/12/12 11:56:45;;;;;;;10.07;5.03;;;14.90;82.50;;;;;;5127346;27;20188;-79
2021/12/12 11:59:18;;;;;;;8.40;4.73;;;14.90;82.60;;;;;;5111391;27;20204;-81
2021/12/12 12:02:01;;;;;;;8.40;4.47;;;14.90;82.80;;;;;;5124307;27;20185;-80
2021/12/12 12:05:00;;;;;;;6.80;4.60;;;14.80;82.80;;;;;;5126935;27;20172;-80
2021/12/12 12:07:43;;;;;;;8.37;5.60;;;14.80;83.20;;;;;;5122269;27;20257;-79
2021/12/12 12:10:19;;;;;;;7.23;4.83;;;14.90;83.50;;;;;;5121060;27;20384;-79
2021/12/12 12:13:08;;;;;;;7.67;5.37;;;14.90;83.50;;;;;;5108316;27;20177;-81
2021/12/12 12:15:47;;;;;;;6.27;3.90;;;14.90;83.30;;;;;;5117328;27;20193;-77
2021/12/12 12:18:28;;;;;;;7.10;4.30;;;14.90;83.30;;;;;;5112683;27;20617;-78
2021/12/12 12:21:05;;;;;;;7.23;4.23;;;14.90;83.50;;;;;;5115665;27;20257;-79
2021/12/12 12:24:00;;;;;;;7.80;4.07;;;14.90;83.40;;;;;;5118584;27;20281;-79
2021/12/12 12:26:52;;;;;;;7.00;4.27;;;14.90;83.60;;;;;;5110050;27;20227;-80
2021/12/12 12:30:10;;;;;;;7.93;4.30;;;15.00;83.50;;;;;;5110491;27;20188;-79
2021/12/12 12:33:06;;;;;;;7.27;4.20;;;14.90;83.10;;;;;;5126403;27;20249;-79
2021/12/12 12:36:13;;;;;;;4.83;3.20;;;14.90;83.10;;;;;;5109341;27;20802;-79
2021/12/12 12:39:27;;;;;;;5.40;3.30;;;14.90;83.00;;;;;;5116516;27;20193;-79
2021/12/12 12:42:42;;;;;;;7.87;3.87;;;14.80;82.80;;;;;;5109040;27;20195;-80
2021/12/12 12:45:50;;;;;;;9.23;3.80;;;14.80;83.30;;;;;;5109798;27;20201;-80
2021/12/12 12:48:57;;;;;;;5.33;3.40;;;14.70;83.10;;;;;;5075882;27;20189;-80
2021/12/12 12:51:41;;;;;;;6.77;3.30;;;14.70;83.10;;;;;;5110596;27;20193;-82
2021/12/12 12:54:29;;;;;;;5.23;3.33;;;14.60;83.30;;;;;;5114205;27;20840;-78
2021/12/12 12:57:21;;;;;;;6.60;3.57;;;14.60;83.60;;;;;;5114910;27;20848;-79
2021/12/12 13:00:06;;;;;;;6.23;3.50;;;14.50;83.60;;;;;;5109968;27;20197;-81
2021/12/12 13:03:13;;;;;;;7.27;4.03;;;14.50;83.80;;;;;;5114292;27;20212;-79
2021/12/12 13:06:19;;;;;;;9.30;3.83;;;14.40;84.10;;;;;;5105815;27;20646;-79
2021/12/12 13:09:15;;;;;;;8.32;4.25;;;14.40;84.20;;;;;;5110944;27;20432;-79
2021/12/12 13:11:56;;;;;;;5.43;3.40;;;14.40;84.20;;;;;;5118538;27;20189;-78
2021/12/12 13:14:34;;;;;;;6.00;3.67;;;14.50;84.40;;;;;;5114859;27;20237;-82
2021/12/12 13:17:12;;;;;;;8.73;4.03;;;14.40;84.50;;;;;;5112663;27;20649;-79
2021/12/12 13:19:54;;;;;;;4.83;3.00;;;14.40;83.90;;;;;;5109729;27;20257;-79
2021/12/12 13:22:30;;;;;;;6.87;3.63;;;14.40;84.20;;;;;;5118095;27;20653;-78
2021/12/12 13:25:09;;;;;;;6.57;3.80;;;14.40;84.20;;;;;;5110890;27;20878;-79
2021/12/12 13:28:04;;;;;;;8.40;4.07;;;14.40;84.20;;;;;;5116704;27;20223;-79
2021/12/12 13:30:43;;;;;;;12.50;4.73;;;14.40;84.00;;;;;;5119078;27;20182;-78
2021/12/12 13:33:27;;;;;;;11.80;4.47;;;14.40;84.10;;;;;;5111459;27;20189;-78
2021/12/12 13:36:23;;;;;;;6.83;4.30;;;14.30;84.00;;;;;;5123697;27;20220;-79
2021/12/12 13:39:07;;;;;;;8.30;4.80;;;14.40;84.00;;;;;;5104277;27;20193;-80